Terminal Aerodrome Forecast
Issued by NWS

Home | Current Version | Previous Version | Graphics & Text | Print | Product List | Glossary On
Versions: 1 2 3 4 5 6 7 8 9 10 11 12 13 14 15 16 17
765
FTUS45 KGGW 172320
TAFSDY
TAF
KSDY 172320Z 1800/1824 VRB05KT 5SM -SHRASN BKN009 OVC015
     FM180300 30005KT P6SM OVC012
     FM180500 VRB03KT P6SM OVC022=

USA.gov is the U.S. government's official web portal to all federal, state and local government web resources and services.